< Typhoon 198815 1988 Season Typhoon 198817 >
Typhoon 198816 (GAY)
General InformationTrack Information on Google MapsDetailed Wind InformationList of All Images || Disaster Info.ResourceGoogle EarthGE AnimationAtom FeedGeoJSON
Detalied Best Track (Time Zone = UTC)
Year Month Day Hour Lat. Long. Pressure (hPa) Wind (kt) Class Image Chart
1988 9 2 00 26.0 133.0 1004 0 2 Image Chart
1988 9 2 06 26.0 134.5 1002 0 2 Image Chart
1988 9 2 12 26.9 135.7 1002 0 2 Image Chart
1988 9 2 18 27.8 136.8 1000 0 2 Image Chart
1988 9 3 00 28.7 138.0 996 40 3 Image Chart
1988 9 3 06 29.7 139.2 996 40 3 Image Chart
1988 9 3 12 30.5 140.5 996 40 3 Image Chart
1988 9 3 18 31.1 141.4 996 40 3 Image Chart
1988 9 4 00 31.6 142.3 998 40 3 Image Chart
1988 9 4 06 32.1 143.2 1000 40 3 Image Chart
1988 9 4 12 33.0 144.4 1002 35 3 Image Chart
1988 9 4 18 33.5 145.5 1004 0 6 Image Chart
1988 9 5 00 34.0 146.5 1006 0 6 Image Chart
1988 9 5 06 34.0 147.5 1006 0 6 Image Chart
1988 9 5 12 34.5 148.0 1008 0 6 Image Chart
1988 9 5 18 34.5 148.0 1006 0 6 Image Chart
1988 9 6 00 34.5 148.0 1004 0 6 Image Chart
1988 9 6 06 34.5 148.0 1002 0 6 Image Chart
1988 9 6 12 34.5 148.5 1004 0 6 Image Chart
1988 9 6 18 35.0 149.0 1004 0 6 Image Chart
1988 9 7 00 36.0 150.0 1004 0 6 Image Chart
1988 9 7 06 36.5 151.5 1004 0 6 Image Chart
1988 9 7 12 37.0 153.0 1006 0 6 Image Chart
1988 9 7 18 37.0 155.0 1006 0 6 Image Chart
1988 9 8 00 38.0 157.0 1008 0 6 Image Chart
1988 9 8 06 38.0 162.0 1010 0 6 Image Chart
Japan Meteorological Agency Best Track Data | Correction Date : 1992-10-21
< Typhoon 198815 1988 Season Typhoon 198817 >

Help